sensor_id;sensor_type;location;lat;lon;timestamp;pressure;altitude;pressure_sealevel;temperature;humidity
6034;BME280;3045;43.226;27.858;2023-01-04T00:01:31;79495.09;;;9.58;100.00
6034;BME280;3045;43.226;27.858;2023-01-04T00:03:59;79539.69;;;9.65;100.00
6034;BME280;3045;43.226;27.858;2023-01-04T00:06:26;79130.69;;;9.57;100.00
6034;BME280;3045;43.226;27.858;2023-01-04T00:08:53;78938.81;;;9.58;100.00
6034;BME280;3045;43.226;27.858;2023-01-04T00:11:21;78401.28;;;9.61;100.00
6034;BME280;3045;43.226;27.858;2023-01-04T00:13:50;79203.19;;;9.39;100.00
6034;BME280;3045;43.226;27.858;2023-01-04T00:16:18;79184.66;;;9.38;100.00
6034;BME280;3045;43.226;27.858;2023-01-04T00:18:45;79935.53;;;9.33;100.00
6034;BME280;3045;43.226;27.858;2023-01-04T00:21:15;79833.66;;;9.35;100.00
6034;BME280;3045;43.226;27.858;2023-01-04T00:23:43;80412.00;;;9.27;100.00
6034;BME280;3045;43.226;27.858;2023-01-04T00:26:12;81164.75;;;9.10;100.00
6034;BME280;3045;43.226;27.858;2023-01-04T00:28:40;80024.81;;;9.20;100.00
6034;BME280;3045;43.226;27.858;2023-01-04T00:31:09;77192.13;;;9.22;100.00
6034;BME280;3045;43.226;27.858;2023-01-04T00:33:36;74997.72;;;9.24;100.00
6034;BME280;3045;43.226;27.858;2023-01-04T00:36:04;70546.00;;;9.26;100.00
6034;BME280;3045;43.226;27.858;2023-01-04T00:38:34;66511.09;;;9.15;100.00
6034;BME280;3045;43.226;27.858;2023-01-04T00:41:02;64916.69;;;9.36;100.00
6034;BME280;3045;43.226;27.858;2023-01-04T00:43:29;65366.63;;;9.25;100.00
6034;BME280;3045;43.226;27.858;2023-01-04T00:45:57;62564.00;;;9.26;100.00
6034;BME280;3045;43.226;27.858;2023-01-04T00:48:25;61770.13;;;9.33;100.00
6034;BME280;3045;43.226;27.858;2023-01-04T00:50:52;60858.56;;;9.18;100.00
6034;BME280;3045;43.226;27.858;2023-01-04T00:53:19;59221.38;;;9.14;100.00
6034;BME280;3045;43.226;27.858;2023-01-04T00:55:48;58590.22;;;9.27;100.00
6034;BME280;3045;43.226;27.858;2023-01-04T00:58:14;59191.16;;;9.29;100.00
6034;BME280;3045;43.226;27.858;2023-01-04T01:00:41;59567.88;;;9.26;100.00
6034;BME280;3045;43.226;27.858;2023-01-04T01:03:08;57657.97;;;9.22;100.00
6034;BME280;3045;43.226;27.858;2023-01-04T01:05:35;58196.31;;;9.23;100.00
6034;BME280;3045;43.226;27.858;2023-01-04T01:08:03;59675.31;;;9.22;100.00
6034;BME280;3045;43.226;27.858;2023-01-04T01:10:50;58808.66;;;9.09;100.00
6034;BME280;3045;43.226;27.858;2023-01-04T01:13:17;54495.16;;;9.15;100.00
6034;BME280;3045;43.226;27.858;2023-01-04T01:15:44;53589.88;;;9.16;100.00
6034;BME280;3045;43.226;27.858;2023-01-04T01:18:11;52647.34;;;9.17;100.00
6034;BME280;3045;43.226;27.858;2023-01-04T01:20:42;53485.59;;;9.10;100.00
6034;BME280;3045;43.226;27.858;2023-01-04T01:23:11;55801.25;;;9.25;100.00
6034;BME280;3045;43.226;27.858;2023-01-04T01:25:38;57200.72;;;9.29;100.00
6034;BME280;3045;43.226;27.858;2023-01-04T01:28:07;59010.56;;;9.26;100.00
6034;BME280;3045;43.226;27.858;2023-01-04T01:30:38;58337.22;;;9.22;100.00
6034;BME280;3045;43.226;27.858;2023-01-04T01:33:06;57127.94;;;9.19;100.00
6034;BME280;3045;43.226;27.858;2023-01-04T01:35:33;56046.78;;;9.17;100.00
6034;BME280;3045;43.226;27.858;2023-01-04T01:38:00;53861.94;;;9.06;100.00
6034;BME280;3045;43.226;27.858;2023-01-04T01:40:27;51901.44;;;8.84;100.00
6034;BME280;3045;43.226;27.858;2023-01-04T01:42:54;50602.16;;;8.96;100.00
6034;BME280;3045;43.226;27.858;2023-01-04T01:45:26;49870.72;;;9.06;100.00
6034;BME280;3045;43.226;27.858;2023-01-04T01:47:58;49274.03;;;8.97;100.00
6034;BME280;3045;43.226;27.858;2023-01-04T01:50:30;50107.22;;;9.11;100.00
6034;BME280;3045;43.226;27.858;2023-01-04T01:52:59;49314.03;;;8.97;100.00
6034;BME280;3045;43.226;27.858;2023-01-04T01:55:27;47073.75;;;8.97;100.00
6034;BME280;3045;43.226;27.858;2023-01-04T01:57:56;45281.75;;;9.04;100.00
6034;BME280;3045;43.226;27.858;2023-01-04T02:00:26;47494.69;;;8.96;100.00
6034;BME280;3045;43.226;27.858;2023-01-04T02:02:58;48681.88;;;8.90;100.00
6034;BME280;3045;43.226;27.858;2023-01-04T02:05:30;46348.19;;;8.84;100.00
6034;BME280;3045;43.226;27.858;2023-01-04T02:07:59;42586.81;;;8.77;100.00
6034;BME280;3045;43.226;27.858;2023-01-04T02:10:28;38528.88;;;8.64;100.00
6034;BME280;3045;43.226;27.858;2023-01-04T02:12:57;34337.34;;;8.56;100.00
6034;BME280;3045;43.226;27.858;2023-01-04T02:15:28;28226.34;;;8.51;100.00
6034;BME280;3045;43.226;27.858;2023-01-04T02:18:04;24375.16;;;8.53;100.00
6034;BME280;3045;43.226;27.858;2023-01-04T02:20:41;21484.91;;;8.43;100.00
6034;BME280;3045;43.226;27.858;2023-01-04T02:23:36;19564.69;;;8.49;100.00
6034;BME280;3045;43.226;27.858;2023-01-04T02:29:44;14440.50;;;8.40;100.00
6034;BME280;3045;43.226;27.858;2023-01-04T02:32:22;15716.72;;;8.30;100.00
6034;BME280;3045;43.226;27.858;2023-01-04T02:34:58;16993.50;;;8.20;100.00
6034;BME280;3045;43.226;27.858;2023-01-04T02:37:36;17951.59;;;8.15;100.00
6034;BME280;3045;43.226;27.858;2023-01-04T02:40:11;16022.03;;;7.82;100.00
6034;BME280;3045;43.226;27.858;2023-01-04T02:42:46;14109.44;;;8.00;100.00
6034;BME280;3045;43.226;27.858;2023-01-04T02:45:37;12193.22;;;8.02;100.00
6034;BME280;3045;43.226;27.858;2023-01-04T02:48:06;9000.75;;;8.02;100.00
6034;BME280;3045;43.226;27.858;2023-01-04T02:50:52;8041.47;;;7.90;100.00
6034;BME280;3045;43.226;27.858;2023-01-04T02:53:22;4853.09;;;7.85;100.00
6034;BME280;3045;43.226;27.858;2023-01-04T02:55:59;1668.66;;;7.84;100.00
6034;BME280;3045;43.226;27.858;2023-01-04T02:58:45;3897.13;;;7.81;100.00
6034;BME280;3045;43.226;27.858;2023-01-04T03:01:21;1668.97;;;7.88;100.00
6034;BME280;3045;43.226;27.858;2023-01-04T03:04:24;1668.94;;;7.87;100.00
6034;BME280;3045;43.226;27.858;2023-01-04T03:07:22;-239.38;;;8.06;100.00
6034;BME280;3045;43.226;27.858;2023-01-04T03:09:55;-2783.88;;;8.37;100.00
6034;BME280;3045;43.226;27.858;2023-01-04T03:12:27;-2147.09;;;8.67;100.00
6034;BME280;3045;43.226;27.858;2023-01-04T03:14:59;720.97;;;8.96;100.00
6034;BME280;3045;43.226;27.858;2023-01-04T03:17:33;4549.78;;;9.07;100.00
6034;BME280;3045;43.226;27.858;2023-01-04T03:20:02;9022.63;;;9.13;100.00
6034;BME280;3045;43.226;27.858;2023-01-04T03:22:33;12866.34;;;9.35;100.00
6034;BME280;3045;43.226;27.858;2023-01-04T03:25:25;14785.25;;;9.26;100.00
6034;BME280;3045;43.226;27.858;2023-01-04T03:28:13;17034.09;;;9.45;100.00
6034;BME280;3045;43.226;27.858;2023-01-04T03:31:01;18313.75;;;9.36;100.00
6034;BME280;3045;43.226;27.858;2023-01-04T03:33:47;17997.75;;;9.50;100.00
6034;BME280;3045;43.226;27.858;2023-01-04T03:36:41;20246.59;;;9.58;100.00
6034;BME280;3045;43.226;27.858;2023-01-04T03:39:14;21210.63;;;9.60;100.00
6034;BME280;3045;43.226;27.858;2023-01-04T03:42:07;22500.25;;;9.73;100.00
6034;BME280;3045;43.226;27.858;2023-01-04T03:44:55;26680.34;;;9.75;100.00
6034;BME280;3045;43.226;27.858;2023-01-04T03:47:47;28607.09;;;9.67;100.00
6034;BME280;3045;43.226;27.858;2023-01-04T03:50:37;29888.97;;;9.56;100.00
6034;BME280;3045;43.226;27.858;2023-01-04T03:53:08;28923.41;;;9.56;100.00
6034;BME280;3045;43.226;27.858;2023-01-04T03:55:36;27954.84;;;9.50;100.00
6034;BME280;3045;43.226;27.858;2023-01-04T03:58:04;29243.13;;;9.52;100.00
6034;BME280;3045;43.226;27.858;2023-01-04T04:00:32;30208.69;;;9.52;100.00
6034;BME280;3045;43.226;27.858;2023-01-04T04:02:59;25380.06;;;9.45;100.00
6034;BME280;3045;43.226;27.858;2023-01-04T04:05:33;23773.66;;;9.45;100.00
6034;BME280;3045;43.226;27.858;2023-01-04T04:08:19;19917.88;;;9.37;100.00
6034;BME280;3045;43.226;27.858;2023-01-04T04:10:56;18958.41;;;9.45;100.00
6034;BME280;3045;43.226;27.858;2023-01-04T04:13:44;19604.69;;;9.58;100.00
6034;BME280;3045;43.226;27.858;2023-01-04T04:16:11;18635.50;;;9.39;100.00
6034;BME280;3045;43.226;27.858;2023-01-04T04:18:38;21532.94;;;9.63;100.00
6034;BME280;3045;43.226;27.858;2023-01-04T04:21:05;23150.81;;;9.91;100.00
6034;BME280;3045;43.226;27.858;2023-01-04T04:23:33;24442.66;;;10.04;100.00
6034;BME280;3045;43.226;27.858;2023-01-04T04:26:00;29264.88;;;9.94;100.00
6034;BME280;3045;43.226;27.858;2023-01-04T04:28:27;33144.00;;;10.15;100.00
6034;BME280;3045;43.226;27.858;2023-01-04T04:30:53;44439.38;;;10.00;100.00
6034;BME280;3045;43.226;27.858;2023-01-04T04:33:20;49284.53;;;9.87;100.00
6034;BME280;3045;43.226;27.858;2023-01-04T04:35:49;49922.84;;;9.76;100.00
6034;BME280;3045;43.226;27.858;2023-01-04T04:38:17;41825.97;;;9.64;100.00
6034;BME280;3045;43.226;27.858;2023-01-04T04:40:45;31166.69;;;9.38;100.00
6034;BME280;3045;43.226;27.858;2023-01-04T04:43:29;23455.47;;;9.52;100.00
6034;BME280;3045;43.226;27.858;2023-01-04T04:45:56;21848.38;;;9.49;100.00
6034;BME280;3045;43.226;27.858;2023-01-04T04:48:23;23463.31;;;9.71;100.00
6034;BME280;3045;43.226;27.858;2023-01-04T04:50:50;24422.09;;;9.58;100.00
6034;BME280;3045;43.226;27.858;2023-01-04T04:53:16;24751.72;;;9.77;100.00
6034;BME280;3045;43.226;27.858;2023-01-04T04:55:45;27323.28;;;9.74;100.00
6034;BME280;3045;43.226;27.858;2023-01-04T04:58:12;28611.53;;;9.76;100.00
6034;BME280;3045;43.226;27.858;2023-01-04T05:00:39;30216.34;;;9.67;100.00
6034;BME280;3045;43.226;27.858;2023-01-04T05:03:06;32157.47;;;9.82;100.00
6034;BME280;3045;43.226;27.858;2023-01-04T05:05:33;32481.78;;;9.85;100.00
6034;BME280;3045;43.226;27.858;2023-01-04T05:08:00;34417.69;;;9.88;100.00
6034;BME280;3045;43.226;27.858;2023-01-04T05:10:27;35064.94;;;9.91;100.00
6034;BME280;3045;43.226;27.858;2023-01-04T05:12:55;36031.84;;;9.90;100.00
6034;BME280;3045;43.226;27.858;2023-01-04T05:15:28;35708.53;;;9.89;100.00
6034;BME280;3045;43.226;27.858;2023-01-04T05:17:56;35384.69;;;9.87;100.00
6034;BME280;3045;43.226;27.858;2023-01-04T05:20:23;35709.19;;;9.90;100.00
6034;BME280;3045;43.226;27.858;2023-01-04T05:22:50;37327.38;;;9.97;100.00
6034;BME280;3045;43.226;27.858;2023-01-04T05:25:17;34084.81;;;9.71;100.00
6034;BME280;3045;43.226;27.858;2023-01-04T05:27:44;33766.09;;;9.77;100.00
6034;BME280;3045;43.226;27.858;2023-01-04T05:30:14;37323.06;;;9.90;100.00
6034;BME280;3045;43.226;27.858;2023-01-04T05:32:59;37006.56;;;10.00;100.00
6034;BME280;3045;43.226;27.858;2023-01-04T05:35:27;41208.63;;;10.04;100.00
6034;BME280;3045;43.226;27.858;2023-01-04T05:37:54;42811.22;;;9.85;100.00
6034;BME280;3045;43.226;27.858;2023-01-04T05:40:22;39266.97;;;10.00;100.00
6034;BME280;3045;43.226;27.858;2023-01-04T05:42:48;40235.13;;;9.98;100.00
6034;BME280;3045;43.226;27.858;2023-01-04T05:45:17;42507.03;;;10.11;100.00
6034;BME280;3045;43.226;27.858;2023-01-04T05:47:47;45425.66;;;10.20;100.00
6034;BME280;3045;43.226;27.858;2023-01-04T05:50:15;46723.25;;;10.23;100.00
6034;BME280;3045;43.226;27.858;2023-01-04T05:52:42;51586.94;;;10.25;100.00
6034;BME280;3045;43.226;27.858;2023-01-04T05:55:09;53853.41;;;10.20;100.00
6034;BME280;3045;43.226;27.858;2023-01-04T05:57:36;57435.13;;;10.30;100.00
6034;BME280;3045;43.226;27.858;2023-01-04T06:00:04;62971.56;;;10.38;100.00
6034;BME280;3045;43.226;27.858;2023-01-04T06:02:33;65893.22;;;10.30;100.00
6034;BME280;3045;43.226;27.858;2023-01-04T06:05:00;67852.28;;;10.33;100.00
6034;BME280;3045;43.226;27.858;2023-01-04T06:07:27;59064.78;;;10.35;100.00
6034;BME280;3045;43.226;27.858;2023-01-04T06:09:54;56152.25;;;10.47;100.00
6034;BME280;3045;43.226;27.858;2023-01-04T06:12:21;56826.75;;;10.73;100.00
6034;BME280;3045;43.226;27.858;2023-01-04T06:14:48;75408.31;;;10.73;100.00
6034;BME280;3045;43.226;27.858;2023-01-04T06:17:16;111847.69;;;10.54;100.00
6034;BME280;3045;43.226;27.858;2023-01-04T06:19:44;109819.16;;;10.29;100.00
6034;BME280;3045;43.226;27.858;2023-01-04T06:22:11;114147.41;;;10.48;100.00
6034;BME280;3045;43.226;27.858;2023-01-04T06:24:38;131871.16;;;10.37;100.00
6034;BME280;3045;43.226;27.858;2023-01-04T06:27:05;134518.59;;;10.18;100.00
6034;BME280;3045;43.226;27.858;2023-01-04T06:29:31;129964.28;;;10.12;100.00
6034;BME280;3045;43.226;27.858;2023-01-04T06:31:58;114726.16;;;10.05;100.00
6034;BME280;3045;43.226;27.858;2023-01-04T06:34:25;124717.31;;;10.39;100.00
6034;BME280;3045;43.226;27.858;2023-01-04T06:36:54;143900.31;;;10.77;100.00
6034;BME280;3045;43.226;27.858;2023-01-04T06:39:21;148843.75;;;11.15;100.00
6034;BME280;3045;43.226;27.858;2023-01-04T06:41:47;148956.28;;;11.60;100.00
6034;BME280;3045;43.226;27.858;2023-01-04T06:44:14;149027.19;;;11.88;100.00
6034;BME280;3045;43.226;27.858;2023-01-04T06:46:41;149106.94;;;12.20;100.00
6034;BME280;3045;43.226;27.858;2023-01-04T06:49:08;149177.81;;;12.49;100.00
6034;BME280;3045;43.226;27.858;2023-01-04T06:51:35;149177.81;;;12.49;100.00
6034;BME280;3045;43.226;27.858;2023-01-04T06:54:03;149119.59;;;12.25;100.00
6034;BME280;3045;43.226;27.858;2023-01-04T06:56:30;149166.41;;;12.44;100.00
6034;BME280;3045;43.226;27.858;2023-01-04T06:58:58;149218.31;;;12.65;100.00
6034;BME280;3045;43.226;27.858;2023-01-04T07:01:25;149323.44;;;13.07;100.00
6034;BME280;3045;43.226;27.858;2023-01-04T07:03:52;149453.94;;;13.59;100.00
6034;BME280;3045;43.226;27.858;2023-01-04T07:06:18;149613.63;;;14.23;100.00
6034;BME280;3045;43.226;27.858;2023-01-04T07:08:46;149672.03;;;14.46;100.00
6034;BME280;3045;43.226;27.858;2023-01-04T07:11:14;149869.84;;;15.25;100.00
6034;BME280;3045;43.226;27.858;2023-01-04T07:13:41;149831.81;;;15.09;100.00
6034;BME280;3045;43.226;27.858;2023-01-04T07:16:08;149896.53;;;15.35;100.00
6034;BME280;3045;43.226;27.858;2023-01-04T07:18:35;149895.25;;;15.35;100.00
6034;BME280;3045;43.226;27.858;2023-01-04T07:21:02;149979.03;;;15.68;100.00
6034;BME280;3045;43.226;27.858;2023-01-04T07:23:29;150138.97;;;16.32;100.00
6034;BME280;3045;43.226;27.858;2023-01-04T07:26:00;150151.69;;;16.37;100.00
6034;BME280;3045;43.226;27.858;2023-01-04T07:28:28;150198.63;;;16.56;100.00
6034;BME280;3045;43.226;27.858;2023-01-04T07:31:12;150201.19;;;16.57;100.00
6034;BME280;3045;43.226;27.858;2023-01-04T07:33:39;150174.53;;;16.46;100.00
6034;BME280;3045;43.226;27.858;2023-01-04T07:36:06;150206.34;;;16.59;100.00
6034;BME280;3045;43.226;27.858;2023-01-04T07:38:33;150163.13;;;16.41;100.00
6034;BME280;3045;43.226;27.858;2023-01-04T07:41:01;150094.53;;;16.14;100.00
6034;BME280;3045;43.226;27.858;2023-01-04T07:43:30;149998.06;;;15.76;100.00
6034;BME280;3045;43.226;27.858;2023-01-04T07:45:57;149905.41;;;15.39;100.00
6034;BME280;3045;43.226;27.858;2023-01-04T07:48:23;149717.63;;;14.64;100.00
6034;BME280;3045;43.226;27.858;2023-01-04T07:50:50;149599.72;;;14.17;100.00
6034;BME280;3045;43.226;27.858;2023-01-04T07:53:17;149551.53;;;13.98;100.00
6034;BME280;3045;43.226;27.858;2023-01-04T07:55:55;149514.81;;;13.83;100.00
6034;BME280;3045;43.226;27.858;2023-01-04T07:58:23;149509.72;;;13.81;100.00
6034;BME280;3045;43.226;27.858;2023-01-04T08:00:51;149476.75;;;13.68;100.00
6034;BME280;3045;43.226;27.858;2023-01-04T08:03:18;149446.34;;;13.56;100.00
6034;BME280;3045;43.226;27.858;2023-01-04T08:05:45;149451.41;;;13.58;100.00
6034;BME280;3045;43.226;27.858;2023-01-04T08:08:12;149428.63;;;13.49;100.00
6034;BME280;3045;43.226;27.858;2023-01-04T08:10:39;149448.91;;;13.57;100.00
6034;BME280;3045;43.226;27.858;2023-01-04T08:13:06;149402.00;;;13.38;100.00
6034;BME280;3045;43.226;27.858;2023-01-04T08:15:33;149431.13;;;13.50;100.00
6034;BME280;3045;43.226;27.858;2023-01-04T08:18:01;149395.69;;;13.36;100.00
6034;BME280;3045;43.226;27.858;2023-01-04T08:20:28;149386.84;;;13.32;100.00
6034;BME280;3045;43.226;27.858;2023-01-04T08:22:55;149383.00;;;13.31;100.00
6034;BME280;3045;43.226;27.858;2023-01-04T08:25:22;149389.34;;;13.33;100.00
6034;BME280;3045;43.226;27.858;2023-01-04T08:27:48;149431.13;;;13.50;100.00
6034;BME280;3045;43.226;27.858;2023-01-04T08:30:15;149532.53;;;13.90;100.00
6034;BME280;3045;43.226;27.858;2023-01-04T08:32:42;149448.91;;;13.57;100.00
6034;BME280;3045;43.226;27.858;2023-01-04T08:35:11;149256.31;;;12.80;100.00
6034;BME280;3045;43.226;27.858;2023-01-04T08:37:37;149320.91;;;13.06;100.00
6034;BME280;3045;43.226;27.858;2023-01-04T08:40:05;149386.84;;;13.32;100.00
6034;BME280;3045;43.226;27.858;2023-01-04T08:42:32;149396.97;;;13.36;100.00
6034;BME280;3045;43.226;27.858;2023-01-04T08:44:59;149408.38;;;13.41;100.00
6034;BME280;3045;43.226;27.858;2023-01-04T08:47:26;149447.63;;;13.56;100.00
6034;BME280;3045;43.226;27.858;2023-01-04T08:49:54;149471.72;;;13.66;100.00
6034;BME280;3045;43.226;27.858;2023-01-04T08:52:22;149495.75;;;13.76;100.00
6034;BME280;3045;43.226;27.858;2023-01-04T08:54:49;149483.13;;;13.70;100.00
6034;BME280;3045;43.226;27.858;2023-01-04T08:57:16;149483.13;;;13.70;100.00
6034;BME280;3045;43.226;27.858;2023-01-04T08:59:43;149498.31;;;13.77;100.00
6034;BME280;3045;43.226;27.858;2023-01-04T09:02:19;149488.16;;;13.72;100.00
6034;BME280;3045;43.226;27.858;2023-01-04T09:04:46;149484.34;;;13.71;100.00
6034;BME280;3045;43.226;27.858;2023-01-04T09:07:13;149471.72;;;13.66;100.00
6034;BME280;3045;43.226;27.858;2023-01-04T09:09:41;149422.28;;;13.46;100.00
6034;BME280;3045;43.226;27.858;2023-01-04T09:12:08;149414.69;;;13.43;100.00
6034;BME280;3045;43.226;27.858;2023-01-04T09:14:36;149371.63;;;13.26;100.00
6034;BME280;3045;43.226;27.858;2023-01-04T09:17:03;149360.22;;;13.21;100.00
6034;BME280;3045;43.226;27.858;2023-01-04T09:19:30;149325.94;;;13.08;100.00
6034;BME280;3045;43.226;27.858;2023-01-04T09:21:57;149279.13;;;12.89;100.00
6034;BME280;3045;43.226;27.858;2023-01-04T09:24:24;149261.34;;;12.82;100.00
6034;BME280;3045;43.226;27.858;2023-01-04T09:26:52;149300.66;;;12.98;100.00
6034;BME280;3045;43.226;27.858;2023-01-04T09:29:19;149312.06;;;13.02;100.00
6034;BME280;3045;43.226;27.858;2023-01-04T09:31:46;149271.50;;;12.86;100.00
6034;BME280;3045;43.226;27.858;2023-01-04T09:34:13;149275.31;;;12.88;100.00
6034;BME280;3045;43.226;27.858;2023-01-04T09:36:40;149289.25;;;12.93;100.00
6034;BME280;3045;43.226;27.858;2023-01-04T09:39:07;149291.78;;;12.94;100.00
6034;BME280;3045;43.226;27.858;2023-01-04T09:41:35;149301.91;;;12.98;100.00
6034;BME280;3045;43.226;27.858;2023-01-04T09:44:16;149329.78;;;13.09;100.00
6034;BME280;3045;43.226;27.858;2023-01-04T09:46:50;149351.34;;;13.18;100.00
6034;BME280;3045;43.226;27.858;2023-01-04T09:49:21;149350.06;;;13.17;100.00
6034;BME280;3045;43.226;27.858;2023-01-04T09:51:55;149265.19;;;12.83;100.00
6034;BME280;3045;43.226;27.858;2023-01-04T09:54:29;149261.34;;;12.82;100.00
6034;BME280;3045;43.226;27.858;2023-01-04T09:56:59;149261.34;;;12.82;100.00
6034;BME280;3045;43.226;27.858;2023-01-04T09:59:29;149177.81;;;12.49;100.00
6034;BME280;3045;43.226;27.858;2023-01-04T10:01:59;149238.59;;;12.73;100.00
6034;BME280;3045;43.226;27.858;2023-01-04T10:04:39;149222.13;;;12.66;100.00
6034;BME280;3045;43.226;27.858;2023-01-04T10:07:12;149220.84;;;12.66;100.00
6034;BME280;3045;43.226;27.858;2023-01-04T10:09:42;149243.66;;;12.75;100.00
6034;BME280;3045;43.226;27.858;2023-01-04T10:12:21;149168.94;;;12.45;100.00
6034;BME280;3045;43.226;27.858;2023-01-04T10:15:05;149138.56;;;12.33;100.00
6034;BME280;3045;43.226;27.858;2023-01-04T10:17:53;149142.41;;;12.34;100.00
6034;BME280;3045;43.226;27.858;2023-01-04T10:20:48;149111.97;;;12.22;100.00
6034;BME280;3045;43.226;27.858;2023-01-04T10:23:27;149033.53;;;11.91;100.00
6034;BME280;3045;43.226;27.858;2023-01-04T10:26:06;148930.97;;;11.50;100.00
6034;BME280;3045;43.226;27.858;2023-01-04T10:28:44;148944.91;;;11.56;100.00
6034;BME280;3045;43.226;27.858;2023-01-04T10:31:17;148930.97;;;11.50;100.00
6034;BME280;3045;43.226;27.858;2023-01-04T10:33:47;148937.34;;;11.53;100.00
6034;BME280;3045;43.226;27.858;2023-01-04T10:36:18;149005.66;;;11.80;100.00
6034;BME280;3045;43.226;27.858;2023-01-04T10:38:46;149071.47;;;12.06;100.00
6034;BME280;3045;43.226;27.858;2023-01-04T10:41:19;149027.19;;;11.88;100.00
6034;BME280;3045;43.226;27.858;2023-01-04T10:44:01;149020.88;;;11.86;100.00
6034;BME280;3045;43.226;27.858;2023-01-04T10:46:39;149044.94;;;11.96;100.00
6034;BME280;3045;43.226;27.858;2023-01-04T10:49:11;149076.56;;;12.08;100.00
6034;BME280;3045;43.226;27.858;2023-01-04T10:51:45;149076.56;;;12.08;100.00
6034;BME280;3045;43.226;27.858;2023-01-04T10:54:20;149039.84;;;11.94;100.00
6034;BME280;3045;43.226;27.858;2023-01-04T10:56:55;149041.13;;;11.94;100.00
6034;BME280;3045;43.226;27.858;2023-01-04T10:59:28;149093.00;;;12.15;100.00
6034;BME280;3045;43.226;27.858;2023-01-04T11:02:06;149094.25;;;12.15;100.00
6034;BME280;3045;43.226;27.858;2023-01-04T11:04:38;149091.72;;;12.14;100.00
6034;BME280;3045;43.226;27.858;2023-01-04T11:07:09;149111.97;;;12.22;100.00
6034;BME280;3045;43.226;27.858;2023-01-04T11:09:43;149138.56;;;12.33;100.00
6034;BME280;3045;43.226;27.858;2023-01-04T11:12:14;149191.75;;;12.54;100.00
6034;BME280;3045;43.226;27.858;2023-01-04T11:14:43;149182.88;;;12.51;100.00
6034;BME280;3045;43.226;27.858;2023-01-04T11:17:11;149163.91;;;12.43;100.00
6034;BME280;3045;43.226;27.858;2023-01-04T11:19:39;149176.53;;;12.48;100.00
6034;BME280;3045;43.226;27.858;2023-01-04T11:22:10;149180.34;;;12.50;100.00
6034;BME280;3045;43.226;27.858;2023-01-04T11:24:41;149194.28;;;12.55;100.00
6034;BME280;3045;43.226;27.858;2023-01-04T11:27:13;149225.94;;;12.68;100.00
6034;BME280;3045;43.226;27.858;2023-01-04T11:29:47;149246.19;;;12.76;100.00
6034;BME280;3045;43.226;27.858;2023-01-04T11:32:31;149252.50;;;12.78;100.00
6034;BME280;3045;43.226;27.858;2023-01-04T11:34:59;149253.78;;;12.79;100.00
6034;BME280;3045;43.226;27.858;2023-01-04T11:37:29;149265.19;;;12.83;100.00
6034;BME280;3045;43.226;27.858;2023-01-04T11:40:21;149269.00;;;12.85;100.00
6034;BME280;3045;43.226;27.858;2023-01-04T11:42:50;149208.19;;;12.61;100.00
6034;BME280;3045;43.226;27.858;2023-01-04T11:45:20;149147.44;;;12.36;100.00
6034;BME280;3045;43.226;27.858;2023-01-04T11:47:51;149117.06;;;12.24;100.00
6034;BME280;3045;43.226;27.858;2023-01-04T11:50:40;149117.06;;;12.24;100.00
6034;BME280;3045;43.226;27.858;2023-01-04T11:53:28;149018.34;;;11.85;100.00
6034;BME280;3045;43.226;27.858;2023-01-04T11:56:12;148970.22;;;11.66;100.00
6034;BME280;3045;43.226;27.858;2023-01-04T11:58:40;149046.19;;;11.96;100.00
6034;BME280;3045;43.226;27.858;2023-01-04T12:01:18;149091.72;;;12.14;100.00
6034;BME280;3045;43.226;27.858;2023-01-04T12:03:47;149108.22;;;12.21;100.00
6034;BME280;3045;43.226;27.858;2023-01-04T12:06:17;149104.41;;;12.19;100.00
6034;BME280;3045;43.226;27.858;2023-01-04T12:08:44;149108.22;;;12.21;100.00
6034;BME280;3045;43.226;27.858;2023-01-04T12:11:18;149010.75;;;11.82;100.00
6034;BME280;3045;43.226;27.858;2023-01-04T12:13:45;149010.75;;;11.82;100.00
6034;BME280;3045;43.226;27.858;2023-01-04T12:16:20;148952.50;;;11.59;100.00
6034;BME280;3045;43.226;27.858;2023-01-04T12:18:51;148984.13;;;11.71;100.00
6034;BME280;3045;43.226;27.858;2023-01-04T12:21:20;148970.22;;;11.66;100.00
6034;BME280;3045;43.226;27.858;2023-01-04T12:23:48;149020.88;;;11.86;100.00
6034;BME280;3045;43.226;27.858;2023-01-04T12:26:17;148971.50;;;11.66;100.00
6034;BME280;3045;43.226;27.858;2023-01-04T12:28:46;148971.50;;;11.66;100.00
6034;BME280;3045;43.226;27.858;2023-01-04T12:31:28;148999.38;;;11.77;100.00
6034;BME280;3045;43.226;27.858;2023-01-04T12:33:58;149023.41;;;11.87;100.00
6034;BME280;3045;43.226;27.858;2023-01-04T12:36:56;149005.66;;;11.80;100.00
6034;BME280;3045;43.226;27.858;2023-01-04T12:39:38;149028.44;;;11.89;100.00
6034;BME280;3045;43.226;27.858;2023-01-04T12:42:20;149006.94;;;11.80;100.00
6034;BME280;3045;43.226;27.858;2023-01-04T12:45:13;149086.69;;;12.12;100.00
6034;BME280;3045;43.226;27.858;2023-01-04T12:47:46;149033.53;;;11.91;100.00
6034;BME280;3045;43.226;27.858;2023-01-04T12:53:55;148947.44;;;11.57;100.00
6034;BME280;3045;43.226;27.858;2023-01-04T12:59:35;148863.97;;;11.23;100.00
6034;BME280;3045;43.226;27.858;2023-01-04T13:02:26;148876.63;;;11.28;100.00
6034;BME280;3045;43.226;27.858;2023-01-04T13:04:55;148876.63;;;11.28;100.00
6034;BME280;3045;43.226;27.858;2023-01-04T13:07:25;148886.75;;;11.32;100.00
6034;BME280;3045;43.226;27.858;2023-01-04T13:09:58;148927.22;;;11.49;100.00
6034;BME280;3045;43.226;27.858;2023-01-04T13:12:45;148979.06;;;11.69;100.00
6034;BME280;3045;43.226;27.858;2023-01-04T13:15:21;148986.69;;;11.72;100.00
6034;BME280;3045;43.226;27.858;2023-01-04T13:17:51;148972.78;;;11.67;100.00
6034;BME280;3045;43.226;27.858;2023-01-04T13:20:20;148951.25;;;11.58;100.00
6034;BME280;3045;43.226;27.858;2023-01-04T13:22:51;148948.72;;;11.57;100.00
6034;BME280;3045;43.226;27.858;2023-01-04T13:25:20;148947.44;;;11.57;100.00
6034;BME280;3045;43.226;27.858;2023-01-04T13:27:57;148927.22;;;11.49;100.00
6034;BME280;3045;43.226;27.858;2023-01-04T13:30:34;148914.56;;;11.43;100.00
6034;BME280;3045;43.226;27.858;2023-01-04T13:33:09;148845.00;;;11.16;100.00